Menia Maria III — SY4965 — position and weather

sailwx.info

Track history (hours):
 
Tides and Currents Weather Stations Pressure Air Temp Water Temp Dewpoint Dewpoint Depression Visibility Wind Speed Wind Dir Waves Ship Positions

Menia Maria III

Last reported at 2018-Jul-21 08:35 UTC. Time now 2018-Jul-21 09:29 UTC.
Position N 40°10' E 024°13'.

Length 50 m; draft 2.5 m.

Type: Passenger vessel. MMSI: 237784100.

Date/timePositionNaut miles runAvg speedWind from/ knotsBaromVisibWave heightAir tempDewpointWater temp
2018-Jul-21 08:35N 40°10' E 024°13'110.5
2018-Jul-21 08:30N 40°10' E 024°12'610.6
2018-Jul-21 07:58N 40°12' E 024°05'610.8
2018-Jul-21 07:23N 40°13' E 023°57'2 0.1
2018-Jul-20 11:29N 40°13' E 023°53'1111.3
2018-Jul-20 10:31N 40°11' E 024°08'111.9
2018-Jul-20 10:26N 40°11' E 024°09'3 0.1
2018-Jul-18 08:33N 40°10' E 024°13'010.1
2018-Jul-18 08:31N 40°10' E 024°12'22 1.2
2018-Jul-17 13:41N 40°14' E 023°44'1 5.1
2018-Jul-17 13:27N 40°15' E 023°45'510.5
2018-Jul-17 12:59N 40°16' E 023°51'13 3.9
2018-Jul-17 09:41N 40°16' E 024°08'210.0
2018-Jul-17 09:26N 40°15' E 024°11'510.5
2018-Jul-17 08:58N 40°11' E 024°14'1 2.8
2018-Jul-17 08:30N 40°10' E 024°13'810.3
2018-Jul-17 07:45N 40°12' E 024°02'310.5
2018-Jul-17 07:28N 40°12' E 023°59'3 0.2
2018-Jul-16 11:32N 40°14' E 023°55'810.9
2018-Jul-16 10:49N 40°15' E 024°06'4 2.6
2018-Jul-16 09:19N 40°15' E 024°11'5 6.0
2018-Jul-16 08:27N 40°10' E 024°12'21 1.1
2018-Jul-15 13:40N 40°15' E 023°45'910.5
2018-Jul-15 12:50N 40°18' E 023°56'14 3.4
2018-Jul-15 08:39N 40°10' E 024°12'210.3
2018-Jul-15 08:26N 40°11' E 024°09'3 0.1
2018-Jul-14 08:30N 40°10' E 024°13'510.4
2018-Jul-14 08:00N 40°11' E 024°06'710.4
2018-Jul-14 07:17N 40°13' E 023°56'10 0.5
2018-Jul-13 12:29N 40°14' E 023°44'4 9.2
2018-Jul-13 12:00N 40°14' E 023°50'611.4
2018-Jul-13 11:30N 40°13' E 023°57'711.2
2018-Jul-13 10:54N 40°11' E 024°06'510.9
2018-Jul-13 10:28N 40°10' E 024°12'4 2.0
2018-Jul-13 08:36N 40°14' E 024°11'111.2
2018-Jul-13 08:30N 40°15' E 024°11'510.3
2018-Jul-13 07:58N 40°15' E 024°03'511.0
2018-Jul-13 07:30N 40°15' E 023°57'10 0.6
2018-Jul-12 14:36N 40°14' E 023°44'210.2
2018-Jul-12 14:21N 40°16' E 023°46'510.3
2018-Jul-12 13:54N 40°19' E 023°51'3 6.2
2018-Jul-12 13:21N 40°20' E 023°55'3 1.5
2018-Jul-12 11:13N 40°17' E 023°57'510.4
2018-Jul-12 10:43N 40°13' E 023°53'210.4
2018-Jul-12 10:30N 40°12' E 023°51'2 4.7
2018-Jul-12 10:00N 40°12' E 023°48'20 0.8
2018-Jul-11 09:14N 40°11' E 024°14'2 3.9
2018-Jul-11 08:48N 40°10' E 024°12'  
Track history (hours):
 
Tides and Currents Weather Stations Pressure Air Temp Water Temp Dewpoint Dewpoint Depression Visibility Wind Speed Wind Dir Waves Ship Positions

Menia Maria III

Last reported at 2018-Jul-21 08:35 UTC. Time now 2018-Jul-21 09:29 UTC.
Position N 40°10' E 024°13'.

Length 50 m; draft 2.5 m.

Type: Passenger vessel. MMSI: 237784100.

Date/timePositionNaut miles runAvg speedWind from/ knotsBaromVisibWave heightAir tempDewpointWater temp
2018-Jul-21 08:35N 40°10' E 024°13'110.5
2018-Jul-21 08:30N 40°10' E 024°12'610.6
2018-Jul-21 07:58N 40°12' E 024°05'610.8
2018-Jul-21 07:23N 40°13' E 023°57'2 0.1
2018-Jul-20 11:29N 40°13' E 023°53'1111.3
2018-Jul-20 10:31N 40°11' E 024°08'111.9
2018-Jul-20 10:26N 40°11' E 024°09'3 0.1
2018-Jul-18 08:33N 40°10' E 024°13'010.1
2018-Jul-18 08:31N 40°10' E 024°12'22 1.2
2018-Jul-17 13:41N 40°14' E 023°44'1 5.1
2018-Jul-17 13:27N 40°15' E 023°45'510.5
2018-Jul-17 12:59N 40°16' E 023°51'13 3.9
2018-Jul-17 09:41N 40°16' E 024°08'210.0
2018-Jul-17 09:26N 40°15' E 024°11'510.5
2018-Jul-17 08:58N 40°11' E 024°14'1 2.8
2018-Jul-17 08:30N 40°10' E 024°13'810.3
2018-Jul-17 07:45N 40°12' E 024°02'310.5
2018-Jul-17 07:28N 40°12' E 023°59'3 0.2
2018-Jul-16 11:32N 40°14' E 023°55'810.9
2018-Jul-16 10:49N 40°15' E 024°06'4 2.6
2018-Jul-16 09:19N 40°15' E 024°11'5 6.0
2018-Jul-16 08:27N 40°10' E 024°12'21 1.1
2018-Jul-15 13:40N 40°15' E 023°45'910.5
2018-Jul-15 12:50N 40°18' E 023°56'14 3.4
2018-Jul-15 08:39N 40°10' E 024°12'210.3
2018-Jul-15 08:26N 40°11' E 024°09'3 0.1
2018-Jul-14 08:30N 40°10' E 024°13'510.4
2018-Jul-14 08:00N 40°11' E 024°06'710.4
2018-Jul-14 07:17N 40°13' E 023°56'10 0.5
2018-Jul-13 12:29N 40°14' E 023°44'4 9.2
2018-Jul-13 12:00N 40°14' E 023°50'611.4
2018-Jul-13 11:30N 40°13' E 023°57'711.2
2018-Jul-13 10:54N 40°11' E 024°06'510.9
2018-Jul-13 10:28N 40°10' E 024°12'4 2.0
2018-Jul-13 08:36N 40°14' E 024°11'111.2
2018-Jul-13 08:30N 40°15' E 024°11'510.3
2018-Jul-13 07:58N 40°15' E 024°03'511.0
2018-Jul-13 07:30N 40°15' E 023°57'10 0.6
2018-Jul-12 14:36N 40°14' E 023°44'210.2
2018-Jul-12 14:21N 40°16' E 023°46'510.3
2018-Jul-12 13:54N 40°19' E 023°51'3 6.2
2018-Jul-12 13:21N 40°20' E 023°55'3 1.5
2018-Jul-12 11:13N 40°17' E 023°57'510.4
2018-Jul-12 10:43N 40°13' E 023°53'210.4
2018-Jul-12 10:30N 40°12' E 023°51'2 4.7
2018-Jul-12 10:00N 40°12' E 023°48'20 0.8
2018-Jul-11 09:14N 40°11' E 024°14'2 3.9
2018-Jul-11 08:48N 40°10' E 024°12'  

Dump ship's entire track history